Date,TemperatureHighF,TemperatureAvgF,TemperatureLowF,DewpointHighF,DewpointAvgF,DewpointLowF,HumidityHigh,HumidityAvg,HumidityLow,PressureMaxIn,PressureMinIn,WindSpeedMaxMPH,WindSpeedAvgMPH,GustSpeedMaxMPH,PrecipitationSumIn
2013-1-1,26.0,20.0,15.0,24.0,19.7,15.0,100,99,88,29.85,29.21,0,-999,0,0.00
2013-1-2,30.0,27.6,25.0,26.0,23.0,20.0,89,82,71,29.64,29.36,0,-999,0,0.00
2013-1-3,30.0,21.2,6.0,24.0,16.7,5.0,97,83,69,29.72,29.64,0,-999,0,0.00
2013-1-4,9.0,2.1,-6.0,8.0,0.9,-7.0,99,94,88,29.99,29.71,0,-999,0,0.00
2013-1-5,15.0,9.0,0.0,14.0,8.2,-1.0,100,96,92,29.95,29.48,0,-999,0,0.00
2013-1-6,10.0,-0.1,-8.0,9.0,-1.1,-9.0,99,95,87,29.55,29.29,0,-999,0,0.00
2013-1-7,5.0,-4.7,-12.0,4.0,-6.1,-13.0,97,93,91,29.57,29.29,0,-999,0,0.00
2013-1-8,1.0,-8.9,-16.0,-1.0,-11.3,-99.9,94,91,89,30.06,29.56,0,-999,0,0.00
2013-1-9,2.0,-5.3,-16.0,1.0,-6.5,-18.0,99,94,89,30.26,30.06,0,-999,0,0.00
2013-1-10,5.0,-1.4,-13.0,4.0,-2.5,-15.0,98,95,90,30.32,30.11,0,-999,0,0.00
2013-1-11,8.0,2.3,-3.0,7.0,1.4,-5.0,99,96,93,30.32,30.16,0,-999,0,0.00
2013-1-12,15.0,7.0,-6.0,15.0,6.6,-7.0,100,98,93,30.32,30.03,0,-999,0,0.00
2013-1-13,38.0,29.0,10.0,36.0,28.5,10.0,100,98,92,30.03,29.65,0,-999,0,0.00
2013-1-14,40.0,37.0,28.0,36.0,32.6,27.0,99,84,62,29.79,29.63,0,-999,0,0.00
2013-1-15,30.0,14.3,0.0,29.0,13.9,0.0,100,98,91,30.28,29.79,0,-999,0,0.00
2013-1-16,10.0,2.0,-7.0,9.0,0.9,-8.0,99,95,91,30.26,29.69,0,-999,0,0.00
2013-1-17,17.0,7.4,-7.0,17.0,6.7,-8.0,100,96,93,29.90,29.54,0,-999,0,0.00
2013-1-18,7.0,-1.8,-18.0,6.0,-3.2,-20.0,98,93,88,30.39,29.91,0,-999,0,0.00
2013-1-19,5.0,1.3,-4.0,2.0,-0.7,-5.0,95,91,81,30.43,30.23,0,-999,0,0.00
2013-1-20,9.0,5.1,-1.0,9.0,3.7,-2.0,98,94,89,30.24,30.03,0,-999,0,0.00
2013-1-21,12.0,9.3,6.0,12.0,9.1,5.0,100,98,92,30.11,29.95,0,-999,0,0.00
2013-1-22,13.0,9.9,8.0,12.0,9.5,7.0,100,97,91,29.96,29.62,0,-999,0,0.00
2013-1-23,15.0,8.8,-8.0,13.0,8.2,-9.0,100,97,91,29.62,29.49,0,-999,0,0.00
2013-1-24,16.0,4.5,-4.0,12.0,3.6,-5.0,100,95,80,29.60,29.41,0,-999,0,0.00
2013-1-25,15.0,6.7,-5.0,15.0,5.7,-8.0,100,95,88,29.68,29.34,0,-999,0,0.00
2013-1-26,-5.0,-24.8,-41.0,-8.0,-27.8,-44.0,90,85,77,30.04,29.68,0,-999,0,0.00
2013-1-27,-19.0,-38.5,-47.0,-22.0,-42.0,-50.0,89,81,67,30.45,30.03,0,-999,0,0.00
2013-1-28,-17.0,-30.3,-45.0,-19.0,-33.6,-48.0,89,83,72,30.57,30.24,0,-999,0,0.00
2013-1-29,-7.0,-12.0,-17.0,-10.0,-14.9,-20.0,90,86,80,30.25,30.06,0,-999,0,0.00
2013-1-30,0.0,-5.8,-14.0,-2.0,-8.0,-16.0,93,89,83,30.16,29.93,0,-999,0,0.00
2013-1-31,15.0,6.3,-4.0,14.0,5.1,-5.0,98,94,86,30.08,29.88,0,-999,0,0.00
2013-2-1,17.0,12.6,1.0,17.0,12.5,1.0,100,99,92,30.15,29.86,0,-999,0,0.00
2013-2-2,17.0,12.1,6.0,17.0,12.1,6.0,100,99,97,29.87,29.60,0,-999,0,0.00
2013-2-3,20.0,11.0,3.0,20.0,10.8,2.0,100,99,94,29.61,29.39,0,-999,0,0.00
2013-2-4,27.0,5.3,-5.0,27.0,4.5,-6.0,100,96,91,29.81,29.56,0,-999,0,0.00
2013-2-5,14.0,-3.4,-11.0,12.0,-5.7,-99.9,98,92,86,29.80,29.65,0,-999,0,0.00
2013-2-6,12.0,2.5,-13.0,10.0,1.5,-16.0,99,95,87,29.73,29.60,0,-999,0,0.00
2013-2-7,9.0,-1.7,-17.0,7.0,-2.8,-19.0,98,94,89,29.75,29.44,0,-999,0,0.00
2013-2-8,17.0,6.9,1.0,17.0,6.2,1.0,100,96,92,29.91,29.47,0,-999,0,0.00
2013-2-9,32.0,22.6,6.0,32.0,22.3,4.0,100,99,93,29.91,29.14,0,-999,0,0.00
2013-2-10,36.0,30.6,23.0,31.0,27.2,21.0,100,87,72,29.44,29.07,0,-999,0,0.00
2013-2-11,28.0,21.8,7.0,24.0,20.1,4.0,100,93,78,29.77,29.44,0,-999,0,0.00
2013-2-12,22.0,4.3,-7.0,16.0,2.4,-8.0,98,92,73,29.94,29.77,0,-999,0,0.00
2013-2-13,31.0,10.9,-10.0,21.0,6.0,-12.0,97,81,57,29.99,29.83,0,-999,0,0.00
2013-2-14,25.0,14.4,2.0,19.0,12.1,1.0,98,90,70,29.83,29.35,0,-999,0,0.00
2013-2-15,23.0,15.2,0.0,22.0,14.8,-1.0,100,98,89,29.76,29.51,0,-999,0,0.00
2013-2-16,24.0,15.5,5.0,20.0,13.9,4.0,100,94,66,29.96,29.76,0,-999,0,0.00
2013-2-17,19.0,12.3,4.0,16.0,11.3,2.0,100,96,85,29.88,29.64,0,-999,0,0.00
2013-2-18,16.0,9.2,-3.0,16.0,7.9,-4.0,100,94,85,29.97,29.68,0,-999,0,0.00
2013-2-19,7.0,-6.2,-22.0,1.0,-8.6,-24.0,95,89,77,29.98,29.50,0,-999,0,0.00
2013-2-20,12.0,3.6,-8.0,9.0,1.6,-10.0,96,91,79,29.50,29.25,0,-999,0,0.00
2013-2-21,13.0,-3.4,-17.0,9.0,-5.6,-20.0,96,90,79,29.39,29.24,0,-999,0,0.00
2013-2-22,13.0,0.7,-16.0,10.0,-1.4,-18.0,97,90,79,29.49,29.24,0,-999,0,0.00
2013-2-23,15.0,4.6,-9.0,12.0,2.6,-10.0,99,91,77,29.47,29.30,0,-999,0,0.00
2013-2-24,21.0,-4.2,-19.0,14.0,-6.7,-22.0,95,88,73,29.81,29.44,0,-999,0,0.00
2013-2-25,24.0,-2.0,-19.0,14.0,-5.4,-22.0,94,85,61,29.92,29.80,0,-999,0,0.00
2013-2-26,24.0,1.5,-13.0,12.0,-2.4,-15.0,94,84,56,29.80,29.52,0,-999,0,0.00
2013-2-27,25.0,6.5,-10.0,10.0,1.9,-12.0,98,82,52,29.53,29.45,0,-999,0,0.00
2013-2-28,22.0,9.4,-7.0,15.0,6.0,-9.0,95,86,67,29.54,29.35,0,-999,0,0.00
2013-3-1,30.0,11.0,-4.0,22.0,9.2,-5.0,100,92,71,30.00,29.41,0,-999,0,0.00
2013-3-2,32.0,4.7,-11.0,19.0,1.1,-13.0,99,86,59,30.23,29.99,0,-999,0,0.00
2013-3-3,23.0,-0.1,-18.0,14.0,-3.8,-20.0,99,85,66,30.61,30.22,0,-999,0,0.00
2013-3-4,28.0,1.7,-17.0,16.0,-3.3,-99.9,95,82,55,30.70,30.47,0,-999,0,0.00
2013-3-5,29.0,8.1,-6.0,15.0,3.2,-9.0,94,81,54,30.47,30.08,0,-999,0,0.00
2013-3-6,29.0,3.0,-16.0,14.0,-3.2,-99.9,96,81,52,30.10,30.00,0,-999,0,0.00
2013-3-7,31.0,10.2,-11.0,22.0,5.3,-13.0,92,81,62,30.04,29.68,0,-999,0,0.00
2013-3-8,42.0,27.5,11.0,28.0,21.8,10.0,100,80,52,29.78,29.63,0,-999,0,0.00
2013-3-9,41.0,27.5,12.0,22.0,17.0,9.0,100,67,37,30.04,29.75,0,-999,0,0.00
2013-3-10,32.0,15.8,-5.0,17.0,9.0,-6.0,96,76,52,30.23,30.04,0,-999,0,0.00
2013-3-11,34.0,17.0,1.0,15.0,8.5,0.0,100,72,39,30.40,30.21,0,-999,0,0.00
2013-3-12,24.0,12.7,3.0,4.0,-3.3,-8.0,78,50,26,30.36,30.17,0,-999,0,0.00
2013-3-13,17.0,5.2,-8.0,-8.0,-9.5,-14.0,75,52,30,30.18,29.97,0,-999,0,0.00
2013-3-14,18.0,-0.3,-15.0,1.0,-7.9,-19.0,89,71,42,30.12,30.00,0,-999,0,0.00
2013-3-15,17.0,-4.8,-26.0,-2.0,-14.3,-29.0,93,67,35,30.10,29.91,0,-999,0,0.00
2013-3-16,20.0,-2.9,-23.0,0.0,-11.9,-26.0,93,67,39,30.20,30.01,0,-999,0,0.00
2013-3-17,26.0,-2.0,-25.0,3.0,-12.2,-28.0,92,66,29,30.25,30.10,0,-999,0,0.00
2013-3-18,22.0,-2.5,-23.0,3.0,-11.4,-26.0,92,69,39,30.10,29.92,0,-999,0,0.00
2013-3-19,20.0,-0.9,-19.0,-2.0,-11.6,-22.0,95,65,32,30.04,29.92,0,-999,0,0.00
2013-3-20,17.0,-6.0,-27.0,-7.0,-16.3,-30.0,95,65,31,30.02,29.93,0,-999,0,0.00
2013-3-21,18.0,-4.9,-30.0,-3.0,-16.3,-34.0,87,61,33,30.29,30.02,0,-999,0,0.00
2013-3-22,30.0,16.0,-3.0,18.0,6.1,-8.0,79,65,53,30.18,29.79,0,-999,0,0.00
2013-3-23,31.0,25.0,18.0,30.0,22.6,18.0,100,90,79,29.85,29.64,0,-999,0,0.00
2013-3-24,27.0,20.4,15.0,24.0,19.3,15.0,100,96,81,29.85,29.51,0,-999,0,0.00
2013-3-25,37.0,21.8,9.0,29.0,15.5,2.0,100,79,47,29.51,29.24,0,-999,0,0.00
2013-3-26,24.0,8.4,-11.0,8.0,0.0,-13.0,100,71,39,30.09,29.49,0,-999,0,0.00
2013-3-27,23.0,0.8,-24.0,4.0,-7.9,-26.0,95,70,40,30.30,30.08,0,-999,0,0.00
2013-3-28,31.0,12.5,-6.0,18.0,1.8,-10.0,84,64,41,30.26,30.02,0,-999,0,0.00
2013-3-29,35.0,25.2,10.0,25.0,18.0,4.0,94,74,58,30.03,29.91,0,-999,0,0.00
2013-3-30,40.0,28.6,20.0,28.0,22.8,-99.9,100,83,57,30.22,29.94,0,-999,0,0.00
2013-3-31,41.0,23.5,7.0,31.0,19.1,7.0,100,85,50,30.27,30.07,0,-999,0,0.00
2013-4-1,39.0,26.9,14.0,21.0,17.7,12.0,100,72,43,30.07,29.86,0,-999,0,0.00
2013-4-2,39.0,19.7,-3.0,19.0,9.8,-4.0,100,70,37,30.18,29.97,0,-999,0,0.00
2013-4-3,39.0,20.5,-1.0,19.0,10.1,-2.0,93,68,39,30.29,30.17,0,-999,0,0.00
2013-4-4,29.0,18.0,0.0,14.0,1.3,-5.0,88,51,29,30.25,29.89,0,-999,0,0.00
2013-4-5,26.0,8.3,-13.0,5.0,-5.1,-16.0,90,58,32,29.89,29.58,0,-999,0,0.00
2013-4-6,34.0,9.9,-19.0,15.0,-2.1,-22.0,93,62,36,29.59,29.44,0,-999,0,0.00
2013-4-7,38.0,24.6,11.0,24.0,11.9,2.0,80,58,44,29.67,29.42,0,-999,0,0.00
2013-4-8,29.0,19.0,10.0,26.0,13.4,0.0,100,80,55,29.69,29.14,0,-999,0,0.00
2013-4-9,29.0,21.0,7.0,22.0,18.0,2.0,100,88,62,29.37,28.81,0,-999,0,0.00
2013-4-10,26.0,8.8,-14.0,3.0,-3.5,-16.0,96,63,29,29.87,29.37,0,-999,0,0.00
2013-4-11,25.0,4.8,-21.0,6.0,-5.2,-24.0,96,66,38,30.07,29.86,0,-999,0,0.00
2013-4-12,26.0,8.5,-12.0,2.0,-4.0,-14.0,90,60,35,30.16,30.04,0,-999,0,0.00
2013-4-13,29.0,11.7,-14.0,3.0,-2.9,-16.0,96,56,30,30.44,30.15,0,-999,0,0.00
2013-4-14,33.0,12.9,-10.0,8.0,-2.7,-13.0,86,55,26,30.53,30.44,0,-999,0,0.00
2013-4-15,31.0,12.8,-12.0,16.0,0.7,-16.0,90,62,34,30.48,30.31,0,-999,0,0.00
2013-4-16,28.0,20.2,14.0,23.0,16.4,12.0,100,85,60,30.31,30.04,0,-999,0,0.00
2013-4-17,33.0,22.4,13.0,24.0,16.8,5.0,100,80,50,30.18,29.98,0,-999,0,0.00
2013-4-18,35.0,16.7,-8.0,11.0,4.5,-9.0,100,64,34,30.25,30.18,0,-999,0,0.00
2013-4-19,38.0,17.5,-9.0,12.0,4.2,-11.0,98,61,32,30.41,30.24,0,-999,0,0.00
2013-4-20,43.0,19.9,-7.0,16.0,5.4,-9.0,97,60,28,30.47,30.39,0,-999,0,0.00
2013-4-21,44.0,23.0,-5.0,25.0,8.7,-7.0,95,59,25,30.46,30.34,0,-999,0,0.00
2013-4-22,47.0,34.3,24.0,29.0,22.5,16.0,99,66,34,30.50,30.36,0,-999,0,0.00
2013-4-23,39.0,29.3,17.0,36.0,25.8,16.0,100,87,59,30.51,30.27,0,-999,0,0.00
2013-4-24,39.0,32.9,29.0,35.0,31.9,24.0,100,96,74,30.27,29.78,0,-999,0,0.00
2013-4-25,36.0,27.6,16.0,24.0,12.5,3.0,88,55,32,29.86,29.72,0,-999,0,0.00
2013-4-26,33.0,21.4,4.0,11.0,5.0,1.0,88,51,29,29.86,29.49,0,-999,0,0.00
2013-4-27,36.0,22.3,6.0,14.0,7.7,3.0,94,57,34,29.94,29.54,0,-999,0,0.00
2013-4-28,33.0,21.1,2.0,12.0,1.4,-5.0,85,45,24,30.16,29.94,0,-999,0,0.00
2013-4-29,37.0,21.1,-2.0,20.0,7.7,-5.0,94,60,32,30.23,30.09,0,-999,0,0.00
2013-4-30,36.0,26.1,9.0,25.0,19.7,8.0,99,77,55,30.10,29.82,0,-999,0,0.00
2013-5-1,41.0,29.0,10.0,29.0,21.8,10.0,100,77,47,29.82,29.53,0,-999,0,0.00
2013-5-2,46.0,36.2,30.0,34.0,30.6,27.0,100,81,48,29.87,29.58,0,-999,0,0.00
2013-5-3,48.0,39.9,33.0,34.0,32.5,30.0,97,75,55,29.88,29.77,0,-999,0,0.00
2013-5-4,38.0,33.6,30.0,37.0,33.4,29.0,100,99,89,29.81,29.64,0,-999,0,0.00
2013-5-5,41.0,32.2,27.0,32.0,28.8,27.0,100,88,64,30.08,29.81,0,-999,0,0.00
2013-5-6,43.0,34.2,27.0,32.0,28.1,25.0,100,80,51,30.20,30.07,0,-999,0,0.00
2013-5-7,44.0,34.8,25.0,31.0,27.9,25.0,100,79,47,30.25,30.18,0,-999,0,0.00
2013-5-8,49.0,37.1,22.0,29.0,24.8,22.0,100,66,36,30.31,30.21,0,-999,0,0.00
2013-5-9,50.0,36.5,19.0,35.0,25.2,18.0,97,67,37,30.34,30.22,0,-999,0,0.00
2013-5-10,56.0,41.2,23.0,37.0,29.6,23.0,100,68,38,30.25,29.92,0,-999,0,0.00
2013-5-11,50.0,41.8,34.0,41.0,38.2,32.0,100,88,64,29.93,29.56,0,-999,0,0.00
2013-5-12,45.0,40.1,35.0,45.0,39.5,35.0,100,98,85,29.57,29.39,0,-999,0,0.00
2013-5-13,38.0,34.4,29.0,38.0,34.4,29.0,100,100,99,29.40,0.00,0,-999,0,0.00
2013-5-14,34.0,30.7,27.0,33.0,30.4,27.0,100,99,92,29.60,0.00,0,-999,0,0.00
2013-5-15,42.0,34.6,29.0,36.0,28.4,22.0,100,80,51,29.73,0.00,0,-999,0,0.00
2013-5-16,48.0,38.3,31.0,29.0,21.3,-99.9,82,64,47,29.49,0.00,0,-999,0,0.00
2013-5-17,49.0,39.3,32.0,41.0,31.8,-99.9,100,81,55,29.45,29.30,0,-999,0,0.00
2013-5-18,36.0,32.0,27.0,34.0,28.2,15.0,100,86,58,30.08,29.33,0,-999,0,0.00
2013-5-19,41.0,31.6,23.0,17.0,12.8,9.0,64,46,31,30.59,30.08,0,-999,0,0.00
2013-5-20,51.0,34.5,16.0,21.0,15.2,12.0,88,51,25,30.66,30.45,0,-999,0,0.00
2013-5-21,56.0,39.2,19.0,25.0,19.2,16.0,92,51,24,30.50,30.16,0,-999,0,0.00
2013-5-22,59.0,41.6,20.0,27.0,22.8,17.0,96,53,27,30.20,29.98,0,-999,0,0.00
2013-5-23,59.0,45.2,29.0,35.0,31.1,23.0,88,60,40,30.06,29.99,0,-999,0,0.00
2013-5-24,67.0,49.3,27.0,36.0,32.0,26.0,100,57,27,30.05,29.87,0,-999,0,0.00
2013-5-25,67.0,49.2,27.0,36.0,29.8,25.0,100,55,23,29.97,29.81,0,-999,0,0.00
2013-5-26,65.0,48.4,29.0,44.0,34.4,25.0,89,61,38,29.86,29.80,0,-999,0,0.00
2013-5-27,74.0,54.7,32.0,46.0,37.8,32.0,100,60,25,29.88,29.67,0,-999,0,0.00
2013-5-28,78.0,56.6,28.0,42.0,35.8,27.0,100,53,22,29.75,29.54,0,-999,0,0.00
2013-5-29,78.0,57.0,31.0,46.0,37.8,29.0,95,54,23,29.66,29.57,0,-999,0,0.00
2013-5-30,78.0,58.9,34.0,47.0,38.9,32.0,100,53,22,29.85,29.65,0,-999,0,0.00
2013-5-31,77.0,58.4,33.0,45.0,39.0,32.0,97,55,21,29.94,29.82,0,-999,0,0.00
2013-6-1,77.0,56.9,34.0,48.0,40.9,34.0,99,61,25,29.97,29.90,0,-999,0,0.00
2013-6-2,60.0,49.5,36.0,45.0,41.9,35.0,98,76,53,30.04,29.95,0,-999,0,0.00
2013-6-3,57.0,47.7,38.0,42.0,38.2,33.0,100,72,47,29.99,29.68,0,-999,0,0.00
2013-6-4,60.0,49.6,40.0,40.0,34.2,27.0,95,60,30,29.73,29.58,0,-999,0,0.00
2013-6-5,58.0,46.5,37.0,43.0,35.9,28.0,100,70,38,29.91,29.73,0,-999,0,0.00
2013-6-6,67.0,49.0,26.0,36.0,31.2,25.0,100,57,28,29.92,0.00,0,-999,0,0.00
2013-6-7,71.0,54.5,40.0,52.0,38.6,-99.9,99,61,25,29.81,0.00,0,-999,0,0.00
2013-6-8,71.0,53.7,31.0,48.0,39.8,31.0,100,65,29,30.03,29.81,0,-999,0,0.00
2013-6-9,73.0,55.9,31.0,46.0,38.9,31.0,100,59,29,30.14,30.02,0,-999,0,0.00
2013-6-10,71.0,57.5,41.0,48.0,42.5,35.0,100,62,28,30.14,30.02,0,-999,0,0.00
2013-6-11,68.0,57.3,45.0,46.0,39.0,30.0,83,54,26,30.09,29.93,0,-999,0,0.00
2013-6-12,69.0,54.4,31.0,41.0,32.8,26.0,100,50,20,30.04,29.91,0,-999,0,0.00
2013-6-13,70.0,56.6,38.0,45.0,36.1,31.0,92,51,27,29.99,29.94,0,-999,0,0.00
2013-6-14,76.0,61.4,40.0,42.0,39.3,35.0,90,48,26,30.12,29.98,0,-999,0,0.00
2013-6-15,81.0,62.8,33.0,47.0,39.3,32.0,100,50,19,30.24,30.03,0,-999,0,0.00
2013-6-16,87.0,69.9,39.0,51.0,43.4,37.0,95,45,22,30.17,29.95,0,-999,0,0.00
2013-6-17,87.0,72.0,44.0,55.0,44.6,34.0,95,44,19,30.04,29.82,0,-999,0,0.00
2013-6-18,80.0,67.1,51.0,44.0,39.8,36.0,69,38,22,29.88,29.69,0,-999,0,0.00
2013-6-19,76.0,61.1,35.0,45.0,38.9,33.0,100,50,27,29.88,29.81,0,-999,0,0.00
2013-6-20,78.0,49.7,32.0,44.0,38.0,30.0,97,68,28,29.93,29.82,0,-999,0,0.00
2013-6-21,75.0,72.0,70.0,46.0,39.0,32.0,42,31,24,29.87,29.84,0,-999,0,0.00
2013-6-22,73.0,66.2,44.0,44.0,34.1,22.0,95,33,15,29.87,29.65,0,-999,0,0.00
2013-6-23,74.0,66.6,37.0,45.0,41.1,32.0,84,41,29,29.69,29.50,0,-999,0,0.00
2013-6-24,82.0,71.8,46.0,49.0,43.5,39.0,88,41,23,29.56,29.45,0,-999,0,0.00
2013-6-25,88.0,78.3,49.0,52.0,48.6,44.0,95,38,22,29.50,29.41,0,-999,0,0.00
2013-6-26,88.0,76.1,52.0,55.0,51.3,49.0,91,44,28,29.66,29.46,0,-999,0,0.00
2013-6-27,85.0,68.6,53.0,57.0,53.1,49.0,93,60,37,29.83,29.65,0,-999,0,0.00
2013-6-28,64.0,57.5,53.0,57.0,54.3,51.0,98,89,69,30.01,29.83,0,-999,0,0.00
2013-6-29,70.0,60.6,52.0,59.0,55.3,52.0,100,84,64,29.97,29.86,0,-999,0,0.00
2013-6-30,76.0,63.5,42.0,56.0,48.2,40.0,100,61,27,29.93,29.71,0,-999,0,0.00
2013-7-1,66.0,55.8,47.0,46.0,42.1,39.0,80,60,41,29.72,29.55,0,-999,0,0.00
2013-7-2,59.0,52.8,45.0,42.0,38.9,36.0,81,60,42,29.79,29.55,0,-999,0,0.00
2013-7-3,67.0,53.0,41.0,45.0,39.7,37.0,95,63,36,29.93,29.78,0,-999,0,0.00
2013-7-4,64.0,57.3,46.0,43.0,38.2,36.0,87,50,38,29.97,29.92,0,-999,0,0.00
2013-7-5,61.0,52.0,44.0,47.0,44.4,37.0,100,76,58,30.02,29.95,0,-999,0,0.00
2013-7-6,64.0,53.8,38.0,49.0,45.0,38.0,100,74,48,29.99,29.77,0,-999,0,0.00
2013-7-7,63.0,53.6,46.0,51.0,45.5,43.0,100,76,48,29.77,29.54,0,-999,0,0.00
2013-7-8,59.0,51.0,45.0,47.0,45.3,43.0,100,82,55,29.75,29.55,0,-999,0,0.00
2013-7-9,61.0,50.9,43.0,54.0,48.3,43.0,100,91,56,29.91,29.75,0,-999,0,0.00
2013-7-10,62.0,53.1,39.0,54.0,48.5,39.0,100,86,59,29.96,29.90,0,-999,0,0.00
2013-7-11,69.0,54.1,41.0,54.0,32.7,-99.9,100,82,46,29.96,29.85,0,-999,0,0.00
2013-7-12,76.0,60.5,42.0,49.0,44.6,39.0,100,62,27,29.93,29.79,0,-999,0,0.00
2013-7-13,79.0,72.1,56.0,49.0,38.3,-99.9,72,35,23,29.97,29.89,0,-999,0,0.00
2013-7-14,80.0,67.8,42.0,55.0,51.0,42.0,100,58,35,30.11,30.02,0,-999,0,0.00
2013-7-15,79.0,61.0,46.0,56.0,51.2,46.0,100,74,42,30.15,29.99,0,-999,0,0.00
2013-7-16,77.0,61.9,54.0,53.0,50.9,48.0,84,69,38,30.04,29.90,0,-999,0,0.00
2013-7-17,70.0,62.0,56.0,54.0,52.6,51.0,86,71,55,29.98,29.91,0,-999,0,0.00
2013-7-18,76.0,58.6,51.0,56.0,52.2,50.0,96,81,40,30.04,29.92,0,-999,0,0.00
2013-7-19,69.0,60.1,54.0,63.0,56.2,50.0,97,87,60,30.03,29.97,0,-999,0,0.00
2013-7-20,65.0,56.2,45.0,58.0,51.1,45.0,100,84,55,30.03,29.92,0,-999,0,0.00
2013-7-21,70.0,57.0,37.0,49.0,44.3,37.0,100,67,41,30.04,29.90,0,-999,0,0.00
2013-10-13,39.0,39.0,39.0,33.0,33.0,33.0,80,80,80,29.54,29.54,0,-999,0,0.00
2013-10-17,49.0,49.0,49.0,36.0,36.0,36.0,58,58,58,29.95,29.95,0,-999,0,0.00
2013-10-18,49.0,49.0,49.0,30.0,30.0,30.0,46,46,46,29.74,29.74,0,-999,0,0.00
2013-10-19,46.0,46.0,46.0,26.0,26.0,26.0,45,45,45,29.50,29.50,0,-999,0,0.00
2013-10-20,43.0,43.0,43.0,26.0,26.0,26.0,51,51,51,29.86,29.86,0,-999,0,0.00
2013-10-21,44.0,40.0,28.0,32.0,30.5,27.0,99,70,62,30.04,29.96,0,-999,0,0.00
2013-10-23,34.0,34.0,34.0,25.0,25.0,25.0,68,68,68,29.74,29.74,0,-999,0,0.00
2013-10-24,28.0,28.0,28.0,26.0,26.0,26.0,90,90,90,29.92,29.92,0,-999,0,0.00
2013-10-25,40.0,38.0,36.0,34.0,32.5,31.0,82,81,80,29.90,29.80,0,-999,0,0.00
2013-10-26,37.0,33.0,29.0,32.0,30.5,29.0,100,92,84,30.48,30.21,0,-999,0,0.00
2013-10-27,39.0,32.0,25.0,37.0,31.0,25.0,100,96,93,30.37,30.04,0,-999,0,0.00
2013-10-28,43.0,37.0,34.0,43.0,37.0,34.0,100,100,100,29.32,29.27,0,-999,0,0.00
2013-10-29,43.0,43.0,43.0,30.0,30.0,30.0,59,59,59,29.54,29.54,0,-999,0,0.00